Time;durP1;ratioP1;P1;durP2;ratioP2;P2;SDS_P1;SDS_P2;PMS_P1;PMS_P2;Temp;Humidity;BMP_temperature;BMP_pressure;BME280_temperature;BME280_humidity;BME280_pressure;Samples;Min_cycle;Max_cycle;Signal;HPM_P1;HPM_P2
2021/06/14 00:02:11;;;;;;;;;;;;;;;25.13;50.55;99867.91;1707914;83;20191;-78
2021/06/14 00:04:39;;;;;;;;;;;;;;;25.09;50.63;99873.65;1707656;84;20141;-76
2021/06/14 00:07:06;;;;;;;;;;;;;;;25.39;50.02;99871.53;1707500;84;20431;-77
2021/06/14 00:09:32;;;;;;;;;;;;;;;25.44;49.77;99868.83;1707630;83;20132;-77
2021/06/14 00:11:58;;;;;;;;;;;;;;;25.44;49.58;99867.46;1707769;83;20259;-77
2021/06/14 00:14:24;;;;;;;;;;;;;;;25.17;50.14;99872.59;1707505;83;20180;-76
2021/06/14 00:16:51;;;;;;;;;;;;;;;25.03;50.53;99874.97;1706395;83;20199;-77
2021/06/14 00:19:17;;;;;;;;;;;;;;;24.98;50.76;99870.84;1707822;84;20726;-77
2021/06/14 00:21:43;;;;;;;;;;;;;;;25.01;50.62;99866.18;1708116;84;20231;-77
2021/06/14 00:24:09;;;;;;;;;;;;;;;24.94;50.80;99869.73;1707627;83;20151;-77
2021/06/14 00:26:35;;;;;;;;;;;;;;;24.96;50.79;99874.93;1707802;84;20180;-77
2021/06/14 00:29:02;;;;;;;;;;;;;;;25.20;50.26;99873.95;1707844;84;20211;-77
2021/06/14 00:31:28;;;;;;;;;;;;;;;25.08;50.51;99874.20;1706920;83;20199;-77
2021/06/14 00:33:55;;;;;;;;;;;;;;;24.94;50.82;99875.76;1707246;84;20232;-78
2021/06/14 00:36:22;;;;;;;;;;;;;;;25.29;50.14;99874.52;1705814;83;20216;-76
2021/06/14 00:38:48;;;;;;;;;;;;;;;25.34;50.03;99868.23;1707384;83;20166;-76
2021/06/14 00:41:14;;;;;;;;;;;;;;;25.17;50.44;99871.77;1707906;84;20418;-76
2021/06/14 00:43:42;;;;;;;;;;;;;;;25.36;50.16;99869.36;1708015;84;20455;-76
2021/06/14 00:46:08;;;;;;;;;;;;;;;25.39;50.14;99870.16;1707915;84;20133;-77
2021/06/14 00:48:36;;;;;;;;;;;;;;;25.42;50.14;99880.60;1707808;83;20865;-77
2021/06/14 00:51:06;;;;;;;;;;;;;;;25.17;50.65;99879.44;1707630;84;20193;-77
2021/06/14 00:53:35;;;;;;;;;;;;;;;24.98;51.19;99870.84;1707915;84;20134;-77
2021/06/14 00:56:03;;;;;;;;;;;;;;;24.95;51.41;99874.66;1707516;84;20434;-76
2021/06/14 00:58:31;;;;;;;;;;;;;;;24.93;51.57;99874.91;1707690;84;20142;-76
2021/06/14 01:00:58;;;;;;;;;;;;;;;24.92;51.71;99875.19;1707657;84;20169;-77
2021/06/14 01:03:24;;;;;;;;;;;;;;;25.07;51.44;99876.61;1707618;84;20134;-76
2021/06/14 01:05:59;;;;;;;;;;;;;;;24.91;51.82;99876.28;1707504;84;20427;-76
2021/06/14 01:08:26;;;;;;;;;;;;;;;24.92;51.89;99876.55;1707813;83;20157;-77
2021/06/14 01:10:53;;;;;;;;;;;;;;;24.91;51.88;99875.73;1707584;83;20156;-76
2021/06/14 01:13:30;;;;;;;;;;;;;;;24.93;51.90;99884.50;1707786;84;20141;-77
2021/06/14 01:16:21;;;;;;;;;;;;;;;24.93;52.01;99885.05;1707627;83;20143;-77
2021/06/14 01:19:23;;;;;;;;;;;;;;;24.91;52.21;99881.76;1704883;83;20184;-77
2021/06/14 01:22:04;;;;;;;;;;;;;;;24.88;52.39;99883.66;1660666;83;20141;-77
2021/06/14 01:24:44;;;;;;;;;;;;;;;24.88;52.45;99882.28;1707535;84;20140;-77
2021/06/14 01:27:27;;;;;;;;;;;;;;;24.89;52.46;99885.30;1707698;83;20195;-76
2021/06/14 01:29:54;;;;;;;;;;;;;;;24.86;52.49;99880.38;1708005;84;20161;-78
2021/06/14 01:32:23;;;;;;;;;;;;;;;24.85;52.51;99882.84;1707708;84;20184;-78
2021/06/14 01:34:50;;;;;;;;;;;;;;;24.85;52.42;99884.20;1707764;84;20161;-78
2021/06/14 01:37:17;;;;;;;;;;;;;;;24.83;52.45;99883.08;1691725;84;20169;-78
2021/06/14 01:39:43;;;;;;;;;;;;;;;24.80;52.49;99889.11;1708017;83;20521;-78
2021/06/14 01:42:10;;;;;;;;;;;;;;;24.76;52.42;99892.92;1691786;84;20168;-77
2021/06/14 01:44:37;;;;;;;;;;;;;;;24.76;52.46;99890.19;1707804;83;20093;-77
2021/06/14 01:47:05;;;;;;;;;;;;;;;24.78;52.35;99892.65;1707506;84;20132;-77
2021/06/14 01:49:31;;;;;;;;;;;;;;;24.97;51.84;99893.83;1691562;84;20149;-77
2021/06/14 01:51:59;;;;;;;;;;;;;;;25.23;51.09;99900.28;1706785;83;20133;-77
2021/06/14 01:54:26;;;;;;;;;;;;;;;25.28;51.05;99903.59;1707920;83;20141;-77
2021/06/14 01:56:54;;;;;;;;;;;;;;;25.26;51.09;99907.16;1705763;83;20145;-77
2021/06/14 01:59:25;;;;;;;;;;;;;;;25.26;51.10;99907.98;1707226;83;20161;-76
2021/06/14 02:01:52;;;;;;;;;;;;;;;25.27;51.12;99915.10;1707607;83;20149;-76
2021/06/14 02:04:19;;;;;;;;;;;;;;;25.25;51.13;99911.82;1691276;84;20434;-76
2021/06/14 02:06:48;;;;;;;;;;;;;;;25.27;51.12;99914.28;1707837;83;20152;-76
2021/06/14 02:09:18;;;;;;;;;;;;;;;24.86;51.99;99920.91;1707367;84;20172;-76
2021/06/14 02:11:47;;;;;;;;;;;;;;;24.80;52.24;99921.44;1707567;84;20125;-76
2021/06/14 02:14:15;;;;;;;;;;;;;;;24.80;52.25;99918.70;1707554;83;20205;-76
2021/06/14 02:16:42;;;;;;;;;;;;;;;24.76;52.40;99916.75;1691315;84;20145;-76
2021/06/14 02:19:08;;;;;;;;;;;;;;;24.74;52.41;99925.22;1691048;84;20157;-76
2021/06/14 02:21:35;;;;;;;;;;;;;;;24.74;52.35;99923.02;1707418;84;20140;-76
2021/06/14 02:24:02;;;;;;;;;;;;;;;25.18;51.40;99926.86;1711110;82;20202;-76
2021/06/14 02:26:30;;;;;;;;;;;;;;;25.25;51.18;99935.13;1736485;82;20165;-76
2021/06/14 02:28:57;;;;;;;;;;;;;;;25.30;51.09;99932.95;1735505;82;20167;-76
2021/06/14 02:31:23;;;;;;;;;;;;;;;25.33;51.04;99939.80;1735139;82;20216;-76
2021/06/14 02:33:50;;;;;;;;;;;;;;;25.18;51.26;99942.75;1735696;82;20169;-76
2021/06/14 02:36:16;;;;;;;;;;;;;;;25.28;51.19;99948.27;1736545;82;20172;-76
2021/06/14 02:38:44;;;;;;;;;;;;;;;24.95;52.01;99948.63;1735874;82;20132;-76
2021/06/14 02:41:10;;;;;;;;;;;;;;;24.93;52.16;99948.05;1737040;82;20173;-76
2021/06/14 02:43:37;;;;;;;;;;;;;;;25.20;51.73;99938.36;1736620;82;20132;-77
2021/06/14 02:46:04;;;;;;;;;;;;;;;25.03;52.13;99948.95;1736580;82;20477;-77
2021/06/14 02:48:32;;;;;;;;;;;;;;;25.46;51.27;99953.00;1736680;82;20144;-76
2021/06/14 02:51:00;;;;;;;;;;;;;;;25.57;51.04;99951.93;1736757;82;20164;-77
2021/06/14 02:53:27;;;;;;;;;;;;;;;25.63;50.92;99948.13;1736722;82;20458;-76
2021/06/14 02:56:06;;;;;;;;;;;;;;;25.67;50.80;99951.16;1709424;82;20188;-76
2021/06/14 02:58:35;;;;;;;;;;;;;;;25.54;51.19;99953.86;1736801;82;20185;-76
2021/06/14 03:01:03;;;;;;;;;;;;;;;25.35;51.76;99956.81;1709748;82;20156;-77
2021/06/14 03:03:30;;;;;;;;;;;;;;;25.35;51.85;99952.70;1736879;82;20418;-77
2021/06/14 03:05:57;;;;;;;;;;;;;;;25.39;51.86;99950.53;1737142;82;20159;-76
2021/06/14 03:08:24;;;;;;;;;;;;;;;25.43;51.81;99948.05;1709602;82;20184;-76
2021/06/14 03:10:49;;;;;;;;;;;;;;;25.46;51.73;99955.75;1709940;82;20144;-78
2021/06/14 03:13:16;;;;;;;;;;;;;;;25.49;51.58;99953.30;1685200;82;20425;-77
2021/06/14 03:15:43;;;;;;;;;;;;;;;25.51;51.53;99954.39;1736967;82;20212;-78
2021/06/14 03:18:09;;;;;;;;;;;;;;;25.78;50.91;99953.67;1709677;82;20149;-77
2021/06/14 03:20:36;;;;;;;;;;;;;;;25.68;51.00;99953.63;1736742;82;20168;-77
2021/06/14 03:23:03;;;;;;;;;;;;;;;25.76;50.89;99959.17;1736055;82;20183;-77
2021/06/14 03:25:29;;;;;;;;;;;;;;;25.80;50.64;99959.73;1735723;82;20417;-77
2021/06/14 03:27:56;;;;;;;;;;;;;;;25.56;51.25;99964.00;1735847;82;20414;-77
2021/06/14 03:30:23;;;;;;;;;;;;;;;25.50;51.44;99958.23;1684155;82;20170;-77
2021/06/14 03:32:49;;;;;;;;;;;;;;;25.47;51.53;99958.77;1735875;82;20179;-77
2021/06/14 03:35:18;;;;;;;;;;;;;;;25.85;50.69;99960.30;1736835;82;20140;-77
2021/06/14 03:37:44;;;;;;;;;;;;;;;25.63;51.11;99965.95;1736152;82;20220;-77
2021/06/14 03:40:11;;;;;;;;;;;;;;;25.74;50.92;99967.62;1736935;82;20234;-77
2021/06/14 03:42:38;;;;;;;;;;;;;;;25.93;50.37;99969.34;1736529;82;20149;-78
2021/06/14 03:45:06;;;;;;;;;;;;;;;25.63;50.93;99980.22;1736162;82;20189;-77
2021/06/14 03:47:33;;;;;;;;;;;;;;;25.81;50.56;99985.24;1735327;82;20179;-77
2021/06/14 03:50:01;;;;;;;;;;;;;;;25.85;50.41;99985.53;1736074;82;20161;-77
2021/06/14 03:52:27;;;;;;;;;;;;;;;25.84;50.47;99981.94;1735587;82;20176;-78
2021/06/14 03:54:53;;;;;;;;;;;;;;;25.87;50.50;99990.19;1735124;82;20480;-78
2021/06/14 03:57:19;;;;;;;;;;;;;;;25.87;50.47;99988.27;1713329;82;20238;-77
2021/06/14 03:59:46;;;;;;;;;;;;;;;25.89;50.34;99999.81;1723683;82;20598;-78
2021/06/14 04:02:13;;;;;;;;;;;;;;;25.88;50.38;99995.40;1736754;82;20203;-77
2021/06/14 04:07:20;;;;;;;;;;;;;;;25.93;50.63;100000.07;1680491;82;20225;-78
2021/06/14 04:09:46;;;;;;;;;;;;;;;25.95;50.48;99993.78;1732566;82;20174;-78
2021/06/14 04:12:14;;;;;;;;;;;;;;;25.94;50.41;99989.40;1725449;82;20137;-78
2021/06/14 04:14:42;;;;;;;;;;;;;;;25.98;50.35;99998.71;1735475;82;20479;-76
2021/06/14 04:17:09;;;;;;;;;;;;;;;25.70;51.05;100005.46;1733750;82;20448;-77
2021/06/14 04:19:35;;;;;;;;;;;;;;;25.75;50.96;100004.10;1735054;82;20231;-79
2021/06/14 04:22:01;;;;;;;;;;;;;;;25.99;50.33;99997.64;1727347;82;20196;-78
2021/06/14 04:24:27;;;;;;;;;;;;;;;26.05;50.39;100006.97;1704720;82;20232;-78
2021/06/14 04:26:53;;;;;;;;;;;;;;;26.10;50.24;100006.16;1733943;82;20190;-78
2021/06/14 04:29:19;;;;;;;;;;;;;;;26.14;50.26;100008.63;1731811;82;20225;-78
2021/06/14 04:31:45;;;;;;;;;;;;;;;26.19;50.03;100007.27;1708806;82;20204;-78
2021/06/14 04:34:11;;;;;;;;;;;;;;;26.10;50.23;100014.39;1728730;82;20261;-78
2021/06/14 04:36:37;;;;;;;;;;;;;;;26.25;49.98;100015.80;1726157;82;20231;-77
2021/06/14 04:39:04;;;;;;;;;;;;;;;26.24;50.16;100014.69;1726875;82;20210;-78
2021/06/14 04:41:30;;;;;;;;;;;;;;;26.34;50.03;100015.23;1724813;82;20344;-77
2021/06/14 04:43:56;;;;;;;;;;;;;;;26.41;49.81;100017.18;1733652;82;20266;-77
2021/06/14 04:46:22;;;;;;;;;;;;;;;26.30;50.20;100017.18;1731902;82;20856;-77
2021/06/14 04:48:48;;;;;;;;;;;;;;;26.48;49.72;100021.87;1749660;82;20173;-77
2021/06/14 04:51:15;;;;;;;;;;;;;;;26.60;49.61;100026.55;1734336;82;20176;-77
2021/06/14 04:53:44;;;;;;;;;;;;;;;26.65;49.47;100036.16;1725569;82;20149;-77
2021/06/14 04:56:09;;;;;;;;;;;;;;;26.70;49.23;100033.41;1723289;82;20641;-77
2021/06/14 04:58:36;;;;;;;;;;;;;;;26.47;49.77;100029.84;1723424;82;20238;-77
2021/06/14 05:01:03;;;;;;;;;;;;;;;26.68;49.25;100034.25;1716786;82;20425;-77
2021/06/14 05:03:29;;;;;;;;;;;;;;;26.72;49.41;100035.34;1707723;82;20184;-78
2021/06/14 05:05:55;;;;;;;;;;;;;;;26.74;49.14;100040.55;1720879;82;20256;-77
2021/06/14 05:08:21;;;;;;;;;;;;;;;26.73;49.20;100036.98;1719874;82;20211;-77
2021/06/14 05:10:48;;;;;;;;;;;;;;;26.36;50.26;100047.39;1717909;82;20153;-77
2021/06/14 05:13:15;;;;;;;;;;;;;;;26.30;50.36;100044.64;1716312;82;20156;-76
2021/06/14 05:15:41;;;;;;;;;;;;;;;26.22;50.31;100054.78;1721639;82;20287;-76
2021/06/14 05:18:08;;;;;;;;;;;;;;;26.13;50.79;100057.77;1717651;82;20182;-78
2021/06/14 05:20:37;;;;;;;;;;;;;;;26.53;50.33;100053.48;1689908;82;20157;-77
2021/06/14 05:23:03;;;;;;;;;;;;;;;26.52;50.63;100054.56;1714331;82;20924;-78
2021/06/14 05:25:31;;;;;;;;;;;;;;;26.73;50.23;100052.10;1712461;82;20204;-77
2021/06/14 05:27:57;;;;;;;;;;;;;;;26.86;49.73;100052.66;1715078;82;20156;-78
2021/06/14 05:30:24;;;;;;;;;;;;;;;27.00;49.41;100057.86;1717635;82;20164;-78
2021/06/14 05:32:50;;;;;;;;;;;;;;;27.05;49.43;100060.60;1715870;82;20176;-77
2021/06/14 05:35:20;;;;;;;;;;;;;;;27.09;49.38;100063.66;1717031;82;20780;-78
2021/06/14 05:37:49;;;;;;;;;;;;;;;27.10;49.59;100063.38;1689623;82;20170;-78
2021/06/14 05:40:16;;;;;;;;;;;;;;;27.13;49.60;100068.33;1717571;82;20212;-78
2021/06/14 05:42:42;;;;;;;;;;;;;;;27.18;49.47;100072.44;1717997;82;20160;-78
2021/06/14 05:45:08;;;;;;;;;;;;;;;27.18;49.32;100072.44;1716542;82;20475;-78
2021/06/14 05:47:34;;;;;;;;;;;;;;;27.20;49.44;100072.15;1717605;82;20635;-77
2021/06/14 05:50:03;;;;;;;;;;;;;;;27.26;49.54;100066.38;1717414;82;20189;-77
2021/06/14 05:52:29;;;;;;;;;;;;;;;27.34;49.71;100069.64;1718994;82;20144;-78
2021/06/14 05:54:55;;;;;;;;;;;;;;;27.44;49.63;100077.89;1718911;82;20180;-78
2021/06/14 05:57:21;;;;;;;;;;;;;;;27.53;49.57;100073.47;1716663;82;20171;-77
2021/06/14 05:59:47;;;;;;;;;;;;;;;27.66;49.29;100079.75;1719395;82;20565;-78
2021/06/14 06:02:13;;;;;;;;;;;;;;;27.76;48.84;100080.30;1716560;82;20153;-77
2021/06/14 06:04:39;;;;;;;;;;;;;;;27.81;48.64;100090.72;1716409;82;21083;-77
2021/06/14 06:07:05;;;;;;;;;;;;;;;27.85;48.58;100084.66;1713865;82;20155;-78
2021/06/14 06:09:31;;;;;;;;;;;;;;;27.94;48.47;100091.23;1716218;82;20191;-77
2021/06/14 06:11:58;;;;;;;;;;;;;;;27.99;48.57;100091.20;1693067;82;20387;-77
2021/06/14 06:14:24;;;;;;;;;;;;;;;28.11;48.56;100094.98;1689093;82;20164;-77
2021/06/14 06:16:50;;;;;;;;;;;;;;;28.20;48.39;100098.78;1718976;82;20565;-78
2021/06/14 06:19:21;;;;;;;;;;;;;;;28.35;47.78;100105.64;1718839;78;20161;-77
2021/06/14 06:21:45;;;;;;;;;;;;;;;28.43;47.76;100106.39;1784596;78;20211;-78
2021/06/14 06:24:11;;;;;;;;;;;;;;;28.59;47.68;100104.93;1778275;78;20198;-79
2021/06/14 06:26:37;;;;;;;;;;;;;;;28.73;47.45;100106.73;1760284;79;20198;-76
2021/06/14 06:29:03;;;;;;;;;;;;;;;28.85;47.20;100108.33;1760617;80;20142;-77
2021/06/14 06:31:30;;;;;;;;;;;;;;;28.93;46.66;100115.95;1761018;80;20171;-78
2021/06/14 06:33:57;;;;;;;;;;;;;;;29.02;46.63;100115.63;1762147;79;20167;-77
2021/06/14 06:36:24;;;;;;;;;;;;;;;29.16;46.33;100106.98;1763309;79;20154;-78
2021/06/14 06:38:50;;;;;;;;;;;;;;;28.98;46.61;100113.21;1759532;79;20173;-78
2021/06/14 06:41:16;;;;;;;;;;;;;;;29.01;46.55;100125.84;1785013;78;20177;-77
2021/06/14 06:43:43;;;;;;;;;;;;;;;29.32;45.86;100120.05;1750440;79;20209;-77
2021/06/14 06:46:11;;;;;;;;;;;;;;;29.20;45.99;100124.56;1752726;80;20198;-76
2021/06/14 06:48:37;;;;;;;;;;;;;;;29.29;45.84;100126.14;1753109;80;20194;-77
2021/06/14 06:51:05;;;;;;;;;;;;;;;29.40;45.92;100132.40;1769626;78;20127;-76
2021/06/14 06:53:31;;;;;;;;;;;;;;;29.58;45.49;100134.45;1775319;78;20179;-76
2021/06/14 06:55:59;;;;;;;;;;;;;;;29.80;45.08;100130.61;1786912;78;20191;-77
2021/06/14 06:58:25;;;;;;;;;;;;;;;30.21;44.32;100132.08;1777797;78;20151;-77
2021/06/14 07:00:52;;;;;;;;;;;;;;;30.35;43.85;100133.55;1785468;78;20830;-78
2021/06/14 07:03:18;;;;;;;;;;;;;;;30.52;43.30;100142.97;1757316;79;20161;-77
2021/06/14 07:05:44;;;;;;;;;;;;;;;30.64;42.95;100143.88;1757910;79;20416;-78
2021/06/14 07:08:10;;;;;;;;;;;;;;;30.66;42.80;100151.33;1752476;80;20237;-76
2021/06/14 07:10:38;;;;;;;;;;;;;;;30.38;43.18;100153.09;1721400;80;20196;-77
2021/06/14 07:13:04;;;;;;;;;;;;;;;30.32;43.33;100155.11;1729462;78;20488;-76
2021/06/14 07:15:30;;;;;;;;;;;;;;;30.37;43.29;100164.45;1753217;79;20184;-76
2021/06/14 07:17:56;;;;;;;;;;;;;;;30.43;43.13;100167.40;1784727;78;20183;-76
2021/06/14 07:20:25;;;;;;;;;;;;;;;30.48;43.30;100171.50;1757414;80;20452;-76
2021/06/14 07:22:54;;;;;;;;;;;;;;;30.54;43.03;100178.02;1760344;80;20167;-77
2021/06/14 07:25:31;;;;;;;;;;;;;;;30.62;42.98;100183.45;1782942;78;20177;-76
2021/06/14 07:27:57;;;;;;;;;;;;;;;31.03;41.75;100185.64;1782468;78;20155;-77
2021/06/14 07:30:23;;;;;;;;;;;;;;;31.11;41.54;100190.45;1788795;78;20239;-76
2021/06/14 07:32:49;;;;;;;;;;;;;;;30.85;42.04;100194.77;1757752;80;20198;-76
2021/06/14 07:35:15;;;;;;;;;;;;;;;31.10;41.58;100191.59;1779010;78;20625;-77
2021/06/14 07:37:42;;;;;;;;;;;;;;;30.82;41.80;100194.80;1763170;79;20195;-76
2021/06/14 07:40:08;;;;;;;;;;;;;;;30.78;41.94;100197.89;1760180;79;20201;-76
2021/06/14 07:42:35;;;;;;;;;;;;;;;30.82;42.10;100201.71;1786122;78;20217;-77
2021/06/14 07:45:01;;;;;;;;;;;;;;;30.86;41.89;100204.14;1785433;78;20179;-78
2021/06/14 07:47:30;;;;;;;;;;;;;;;30.92;42.05;100207.64;1786412;78;20225;-78
2021/06/14 07:50:03;;;;;;;;;;;;;;;30.95;41.91;100212.59;1785041;78;20172;-76
2021/06/14 07:52:29;;;;;;;;;;;;;;;31.37;40.86;100213.59;1754665;78;20143;-77
2021/06/14 07:54:55;;;;;;;;;;;;;;;31.45;40.65;100215.68;1783488;78;20184;-76
2021/06/14 07:57:21;;;;;;;;;;;;;;;31.51;40.25;100211.13;1787820;78;20294;-77
2021/06/14 07:59:47;;;;;;;;;;;;;;;31.50;40.22;100213.64;1788105;78;20245;-79
2021/06/14 08:02:15;;;;;;;;;;;;;;;31.49;40.24;100215.34;1783705;78;20200;-77
2021/06/14 08:04:42;;;;;;;;;;;;;;;31.47;40.26;100214.80;1751240;80;20190;-77
2021/06/14 08:07:15;;;;;;;;;;;;;;;31.45;40.35;100225.37;1780295;78;20179;-77
2021/06/14 08:09:41;;;;;;;;;;;;;;;31.42;40.14;100213.52;1787268;78;20196;-77
2021/06/14 08:12:08;;;;;;;;;;;;;;;31.39;40.39;100223.83;1784355;78;20173;-77
2021/06/14 08:14:34;;;;;;;;;;;;;;;31.42;40.25;100221.81;1784754;78;20535;-76
2021/06/14 08:17:04;;;;;;;;;;;;;;;31.47;40.41;100223.11;1785373;78;20160;-76
2021/06/14 08:27:25;;;;;;;;;;;;;;;31.27;40.85;100230.64;1755203;80;20747;-76
2021/06/14 08:29:53;;;;;;;;;;;;;;;31.29;40.35;100236.67;1753896;80;20194;-76
2021/06/14 08:32:29;;;;;;;;;;;;;;;31.30;39.88;100241.67;1756849;79;20203;-77
2021/06/14 08:34:55;;;;;;;;;;;;;;;31.29;39.83;100243.59;1778798;78;20143;-76
2021/06/14 08:37:22;;;;;;;;;;;;;;;31.26;39.53;100241.42;1781965;78;20190;-76
2021/06/14 08:39:48;;;;;;;;;;;;;;;31.22;39.73;100250.63;1777929;79;20205;-76
2021/06/14 08:42:14;;;;;;;;;;;;;;;31.18;39.94;100253.16;1784577;78;20844;-76
2021/06/14 08:44:41;;;;;;;;;;;;;;;31.37;39.56;100246.25;1752927;79;20176;-77
2021/06/14 08:47:07;;;;;;;;;;;;;;;31.58;39.34;100250.32;1762357;80;20168;-76
2021/06/14 08:49:34;;;;;;;;;;;;;;;31.63;39.37;100250.80;1745201;79;20241;-77
2021/06/14 08:52:03;;;;;;;;;;;;;;;31.62;39.09;100250.55;1788382;78;20352;-76
2021/06/14 08:54:31;;;;;;;;;;;;;;;31.22;39.69;100256.16;1737403;78;20765;-76
2021/06/14 08:56:58;;;;;;;;;;;;;;;31.43;39.39;100263.59;1792606;78;20695;-77
2021/06/14 08:59:24;;;;;;;;;;;;;;;31.36;39.69;100263.17;1789201;78;20171;-76
2021/06/14 09:01:50;;;;;;;;;;;;;;;31.36;39.81;100271.47;1769670;78;20189;-76
2021/06/14 09:04:16;;;;;;;;;;;;;;;31.16;39.71;100273.41;1788506;78;20202;-76
2021/06/14 09:06:43;;;;;;;;;;;;;;;31.07;39.81;100273.26;1784062;78;20212;-77
2021/06/14 09:09:10;;;;;;;;;;;;;;;31.28;39.18;100282.09;1788265;78;20159;-76
2021/06/14 09:11:37;;;;;;;;;;;;;;;30.94;39.75;100270.41;1787085;78;20139;-75
2021/06/14 09:14:19;;;;;;;;;;;;;;;30.80;40.18;100269.77;1754603;79;20589;-76
2021/06/14 09:16:46;;;;;;;;;;;;;;;30.74;40.54;100268.17;1783477;78;20683;-77
2021/06/14 09:19:27;;;;;;;;;;;;;;;30.71;40.88;100268.79;1753960;79;20166;-76
2021/06/14 09:21:56;;;;;;;;;;;;;;;30.69;40.40;100277.07;1732049;79;20140;-76
2021/06/14 09:24:26;;;;;;;;;;;;;;;30.64;40.25;100279.34;1749609;79;20540;-76
2021/06/14 09:26:52;;;;;;;;;;;;;;;30.58;39.98;100280.54;1756788;79;20180;-76
2021/06/14 09:29:25;;;;;;;;;;;;;;;30.52;40.19;100283.08;1757451;79;20155;-77
2021/06/14 09:31:54;;;;;;;;;;;;;;;30.46;40.50;100283.71;1755989;79;20221;-77
2021/06/14 09:34:36;;;;;;;;;;;;;;;30.41;40.50;100281.58;1726699;79;20239;-78
2021/06/14 09:37:04;;;;;;;;;;;;;;;30.59;40.15;100282.18;1759614;79;20191;-76
2021/06/14 09:39:40;;;;;;;;;;;;;;;30.78;39.70;100285.00;1757603;79;20153;-77
2021/06/14 09:42:20;;;;;;;;;;;;;;;30.78;39.58;100294.12;1721155;80;20170;-77
2021/06/14 09:44:47;;;;;;;;;;;;;;;30.76;39.49;100296.37;1759872;79;20144;-77
2021/06/14 09:47:22;;;;;;;;;;;;;;;30.68;39.65;100291.46;1782113;78;20206;-75
2021/06/14 09:50:12;;;;;;;;;;;;;;;;;;;;;
2021/06/14 09:52:43;;;;;;;;;;;;;;;30.56;40.20;100291.05;1729611;79;20541;-77
2021/06/14 09:55:18;;;;;;;;;;;;;;;30.48;40.11;100298.08;1756679;79;20172;-77
2021/06/14 09:57:44;;;;;;;;;;;;;;;30.46;39.82;100298.09;1780425;78;20436;-77
2021/06/14 10:00:13;;;;;;;;;;;;;;;30.46;40.05;100296.71;1751672;78;20159;-77
2021/06/14 10:02:39;;;;;;;;;;;;;;;30.43;40.08;100294.52;1747467;80;20533;-77
2021/06/14 10:05:47;;;;;;;;;;;;;;;30.40;40.25;100293.75;1747488;80;20561;-77
2021/06/14 10:18:45;;;;;;;;;;;;;;;30.31;40.82;100306.83;1461406;95;20964;-76
2021/06/14 10:21:27;;;;;;;;;;;;;;;30.27;40.47;100314.61;1530466;90;20222;-77
2021/06/14 10:23:55;;;;;;;;;;;;;;;30.31;40.25;100315.68;1591858;87;20228;-77
2021/06/14 10:26:26;;;;;;;;;;;;;;;30.29;39.97;100322.86;1689372;82;20162;-77
2021/06/14 10:28:55;;;;;;;;;;;;;;;30.26;39.43;100311.03;1688283;83;20223;-76
2021/06/14 10:31:25;;;;;;;;;;;;;;;30.23;39.50;100308.84;1658557;83;20162;-77
2021/06/14 10:33:53;;;;;;;;;;;;;;;30.22;39.58;100309.97;1689153;82;20162;-77
2021/06/14 10:36:25;;;;;;;;;;;;;;;30.19;39.52;100308.34;1687996;82;20172;-77
2021/06/14 10:38:59;;;;;;;;;;;;;;;30.18;39.54;100308.91;1690106;82;20690;-77
2021/06/14 10:41:25;;;;;;;;;;;;;;;30.14;39.66;100304.25;1705024;79;20213;-77
2021/06/14 10:43:55;;;;;;;;;;;;;;;30.17;39.26;100300.36;1783429;78;20142;-77
2021/06/14 10:46:23;;;;;;;;;;;;;;;29.78;39.99;100306.77;1789796;78;20224;-78
2021/06/14 10:48:53;;;;;;;;;;;;;;;29.78;39.80;100313.66;1790930;78;20264;-76
2021/06/14 10:51:20;;;;;;;;;;;;;;;30.15;38.92;100310.86;1783942;78;20592;-77
2021/06/14 10:54:01;;;;;;;;;;;;;;;30.18;38.82;100305.32;1783174;78;20199;-76
2021/06/14 10:56:30;;;;;;;;;;;;;;;30.18;38.75;100308.91;1713724;78;20237;-76
2021/06/14 10:59:04;;;;;;;;;;;;;;;30.15;38.79;100299.81;1784131;78;20142;-76
2021/06/14 11:01:43;;;;;;;;;;;;;;;30.12;38.83;100300.38;1768394;79;20234;-77
2021/06/14 11:04:09;;;;;;;;;;;;;;;30.09;38.91;100302.34;1780812;78;20175;-78
2021/06/14 11:06:41;;;;;;;;;;;;;;;30.09;38.94;100299.58;1780602;78;20172;-77
2021/06/14 11:09:10;;;;;;;;;;;;;;;30.09;38.88;100294.05;1764151;79;20177;-77
2021/06/14 11:11:57;;;;;;;;;;;;;;;30.09;39.76;100298.19;1768832;79;20220;-77
2021/06/14 11:14:36;;;;;;;;;;;;;;;30.11;39.71;100289.61;1788961;78;20145;-76
2021/06/14 11:17:23;;;;;;;;;;;;;;;30.03;39.29;100298.81;1775600;78;20128;-77
2021/06/14 11:20:03;;;;;;;;;;;;;;;30.03;39.16;100302.13;1784894;78;20192;-76
2021/06/14 11:22:33;;;;;;;;;;;;;;;29.99;39.37;100294.16;1759863;80;20151;-76
2021/06/14 11:24:59;;;;;;;;;;;;;;;29.96;39.59;100287.83;1764671;80;20485;-76
2021/06/14 11:27:45;;;;;;;;;;;;;;;29.97;39.92;100300.52;1760130;80;20190;-77
2021/06/14 11:30:13;;;;;;;;;;;;;;;29.94;39.52;100289.52;1783748;78;20126;-76
2021/06/14 11:32:40;;;;;;;;;;;;;;;29.93;39.66;100284.26;1787978;78;20149;-76
2021/06/14 11:35:06;;;;;;;;;;;;;;;29.95;39.37;100287.57;1761601;78;20213;-76
2021/06/14 11:37:44;;;;;;;;;;;;;;;29.93;39.15;100275.44;1787176;78;20139;-77
2021/06/14 11:40:11;;;;;;;;;;;;;;;29.95;39.22;100276.52;1784466;78;20187;-78
2021/06/14 11:42:49;;;;;;;;;;;;;;;29.93;40.02;100277.36;1789418;78;20154;-77
2021/06/14 11:45:29;;;;;;;;;;;;;;;29.92;39.88;100273.77;1757199;80;20178;-77
2021/06/14 11:47:58;;;;;;;;;;;;;;;29.92;39.77;100268.81;1789365;78;20208;-77
2021/06/14 11:50:26;;;;;;;;;;;;;;;29.92;39.59;100273.77;1755492;79;20177;-77
2021/06/14 11:53:06;;;;;;;;;;;;;;;29.95;39.38;100271.81;1789521;78;20166;-77
2021/06/14 11:55:33;;;;;;;;;;;;;;;29.95;38.68;100274.58;1780002;78;20194;-77
2021/06/14 11:58:02;;;;;;;;;;;;;;;29.94;38.67;100272.94;1789128;78;20148;-78
2021/06/14 12:00:40;;;;;;;;;;;;;;;29.94;38.76;100267.98;1785831;78;20154;-77
2021/06/14 12:03:18;;;;;;;;;;;;;;;29.94;38.49;100265.22;1752098;79;20506;-77
2021/06/14 12:05:44;;;;;;;;;;;;;;;29.90;38.68;100267.73;1780063;79;20843;-77
2021/06/14 12:08:16;;;;;;;;;;;;;;;29.90;38.96;100264.15;1751401;80;20110;-77
2021/06/14 12:10:42;;;;;;;;;;;;;;;29.88;39.37;100256.70;1753090;80;20185;-77
2021/06/14 12:13:16;;;;;;;;;;;;;;;29.87;39.75;100260.58;1755125;80;20193;-77
2021/06/14 12:15:40;;;;;;;;;;;;;;;29.86;39.72;100253.42;1730320;79;20162;-77
2021/06/14 12:18:07;;;;;;;;;;;;;;;29.85;39.28;100258.13;1785555;78;20163;-77
2021/06/14 12:20:35;;;;;;;;;;;;;;;29.85;38.86;100262.27;1786632;78;20160;-77
2021/06/14 12:23:15;;;;;;;;;;;;;;;29.85;38.31;100255.92;1789730;78;20189;-76
2021/06/14 12:25:45;;;;;;;;;;;;;;;29.83;37.96;100258.39;1788392;78;20424;-78
2021/06/14 12:28:23;;;;;;;;;;;;;;;29.79;37.54;100255.95;1777414;78;20152;-78
2021/06/14 12:30:51;;;;;;;;;;;;;;;29.76;37.29;100257.92;1785082;78;20165;-76
2021/06/14 12:33:34;;;;;;;;;;;;;;;29.74;37.34;100257.37;1785353;78;20491;-76
2021/06/14 12:36:00;;;;;;;;;;;;;;;29.74;36.90;100267.04;1788676;78;20163;-76
2021/06/14 12:38:29;;;;;;;;;;;;;;;29.75;37.06;100263.19;1787554;78;20191;-76
2021/06/14 12:40:55;;;;;;;;;;;;;;;29.77;37.24;100257.37;1793090;78;20427;-76
2021/06/14 12:43:21;;;;;;;;;;;;;;;29.79;36.92;100258.70;1787589;78;20147;-77
2021/06/14 12:45:47;;;;;;;;;;;;;;;29.80;36.86;100261.75;1779761;78;20236;-75
2021/06/14 12:48:15;;;;;;;;;;;;;;;29.81;37.11;100263.39;1756813;79;20251;-76
2021/06/14 12:50:43;;;;;;;;;;;;;;;29.84;37.46;100263.36;1762233;79;20164;-76
2021/06/14 12:53:14;;;;;;;;;;;;;;;29.86;37.68;100260.33;1763232;79;20181;-76
2021/06/14 12:55:39;;;;;;;;;;;;;;;29.87;37.65;100261.41;1752503;80;20180;-77
2021/06/14 12:58:10;;;;;;;;;;;;;;;29.88;37.64;100262.22;1759776;79;20477;-75
2021/06/14 13:00:38;;;;;;;;;;;;;;;29.88;37.69;100264.98;1766920;79;20211;-77
2021/06/14 13:03:05;;;;;;;;;;;;;;;29.86;37.46;100268.05;1794839;78;20177;-77
2021/06/14 13:05:32;;;;;;;;;;;;;;;29.80;37.76;100260.38;1800375;78;20144;-78
2021/06/14 13:08:08;;;;;;;;;;;;;;;29.80;37.95;100269.22;1786602;78;20163;-77
2021/06/14 13:10:37;;;;;;;;;;;;;;;29.79;38.11;100270.31;1753153;80;20147;-77